createdAt,value
2023-04-24T00:01:40.504Z,83.95
2023-04-24T00:04:12.041Z,84.26
2023-04-24T00:06:39.789Z,83.74
2023-04-24T00:09:07.233Z,83.96
2023-04-24T00:11:34.785Z,84.33
2023-04-24T00:14:02.394Z,84.01
2023-04-24T00:16:30.118Z,84.39
2023-04-24T00:18:57.615Z,84.51
2023-04-24T00:21:26.766Z,85.39
2023-04-24T00:23:54.896Z,86.20
2023-04-24T00:26:22.336Z,85.57
2023-04-24T00:28:49.864Z,85.21
2023-04-24T00:31:17.389Z,85.43
2023-04-24T00:33:44.820Z,85.80
2023-04-24T00:36:12.280Z,86.75
2023-04-24T00:38:39.715Z,85.65
2023-04-24T00:41:07.705Z,85.82
2023-04-24T00:43:35.437Z,85.72
2023-04-24T00:46:03.048Z,86.47
2023-04-24T00:48:31.438Z,86.46
2023-04-24T00:50:59.804Z,85.94
2023-04-24T00:53:27.471Z,85.92
2023-04-24T00:55:55.376Z,85.42
2023-04-24T00:58:22.951Z,84.74
2023-04-24T01:00:54.163Z,85.49
2023-04-24T01:03:30.086Z,84.88
2023-04-24T01:05:59.486Z,84.58
2023-04-24T01:08:29.984Z,85.67
2023-04-24T01:10:59.008Z,87.57
2023-04-24T01:13:26.612Z,87.06
2023-04-24T01:15:54.083Z,87.45
2023-04-24T01:18:22.942Z,88.17
2023-04-24T01:20:55.364Z,87.16
2023-04-24T01:23:22.852Z,86.83
2023-04-24T01:25:53.380Z,85.36
2023-04-24T01:28:21.588Z,83.34
2023-04-24T01:30:49.451Z,84.91
2023-04-24T01:33:18.066Z,85.09
2023-04-24T01:35:46.679Z,86.18
2023-04-24T01:38:14.190Z,87.31
2023-04-24T01:40:41.939Z,87.37
2023-04-24T01:43:09.421Z,87.78
2023-04-24T01:45:36.874Z,88.23
2023-04-24T01:48:06.182Z,88.80
2023-04-24T01:50:33.898Z,90.17
2023-04-24T01:53:01.610Z,90.67
2023-04-24T01:55:30.389Z,90.60
2023-04-24T01:57:58.597Z,90.69
2023-04-24T02:00:26.339Z,91.41
2023-04-24T02:02:54.636Z,91.71
2023-04-24T02:05:25.392Z,91.37
2023-04-24T02:07:52.873Z,91.39
2023-04-24T02:10:20.408Z,91.46
2023-04-24T02:12:47.841Z,91.16
2023-04-24T02:15:16.443Z,91.01
2023-04-24T02:17:44.040Z,91.99
2023-04-24T02:20:11.925Z,92.02
2023-04-24T02:22:39.685Z,91.82
2023-04-24T02:25:07.739Z,91.88
2023-04-24T02:27:35.278Z,91.75
2023-04-24T02:30:07.349Z,91.90
2023-04-24T02:32:35.045Z,91.87
2023-04-24T02:35:03.101Z,92.30
2023-04-24T02:37:31.149Z,92.70
2023-04-24T02:39:58.607Z,92.17
2023-04-24T02:42:26.184Z,92.21
2023-04-24T02:44:53.632Z,91.66
2023-04-24T02:47:21.266Z,91.24
2023-04-24T02:49:50.302Z,89.39
2023-04-24T02:52:17.934Z,89.13
2023-04-24T02:54:45.611Z,89.86
2023-04-24T02:57:13.100Z,90.11
2023-04-24T02:59:43.187Z,90.97
2023-04-24T03:02:10.930Z,92.54
2023-04-24T03:04:38.669Z,92.77
2023-04-24T03:07:06.717Z,93.58
2023-04-24T03:09:34.208Z,92.16
2023-04-24T03:12:01.692Z,93.36
2023-04-24T03:14:32.229Z,93.29
2023-04-24T03:16:59.756Z,93.09
2023-04-24T03:19:28.018Z,93.34
2023-04-24T03:22:04.375Z,93.62
2023-04-24T03:24:35.415Z,93.25
2023-04-24T03:27:02.948Z,94.92
2023-04-24T03:29:57.057Z,94.38
2023-04-24T03:32:47.349Z,94.16
2023-04-24T03:35:19.884Z,94.10
2023-04-24T03:37:47.336Z,94.51
2023-04-24T03:40:34.641Z,94.37
2023-04-24T03:43:05.914Z,94.10
2023-04-24T03:45:36.903Z,90.85
2023-04-24T03:48:05.724Z,90.82
2023-04-24T03:50:33.679Z,89.74
2023-04-24T03:53:02.072Z,90.97
2023-04-24T03:55:42.888Z,91.75
2023-04-24T03:58:12.689Z,90.81
2023-04-24T04:00:41.364Z,90.09
2023-04-24T04:03:34.917Z,91.79
2023-04-24T04:06:03.163Z,92.89
2023-04-24T04:08:31.411Z,93.96
2023-04-24T04:10:59.897Z,93.91
2023-04-24T04:13:30.512Z,93.53
2023-04-24T04:15:58.176Z,94.64
2023-04-24T04:18:26.108Z,94.50
2023-04-24T04:20:53.601Z,95.46
2023-04-24T04:23:21.168Z,95.78
2023-04-24T04:26:09.133Z,94.87
2023-04-24T04:29:03.077Z,95.06
2023-04-24T04:31:31.795Z,95.04
2023-04-24T04:34:03.475Z,93.59
2023-04-24T04:36:33.759Z,93.02
2023-04-24T04:39:09.354Z,92.83
2023-04-24T04:41:53.945Z,91.98
2023-04-24T04:44:24.471Z,91.57
2023-04-24T04:46:54.256Z,91.03
2023-04-24T04:49:31.818Z,89.79
2023-04-24T04:51:59.435Z,89.96
2023-04-24T04:54:28.248Z,88.96
2023-04-24T04:56:58.366Z,88.74
2023-04-24T04:59:26.350Z,88.74
2023-04-24T05:01:59.708Z,88.15
2023-04-24T05:04:27.706Z,87.78
2023-04-24T05:06:55.312Z,86.75
2023-04-24T05:09:24.333Z,86.40
2023-04-24T05:11:56.300Z,86.22
2023-04-24T05:14:25.201Z,86.18
2023-04-24T05:16:53.144Z,85.41
2023-04-24T05:19:22.623Z,84.87
2023-04-24T05:21:50.084Z,82.00
2023-04-24T05:24:18.059Z,82.59
2023-04-24T05:27:06.772Z,82.34
2023-04-24T05:29:39.154Z,81.31
2023-04-24T05:32:07.738Z,79.98
2023-04-24T05:34:35.990Z,80.75
2023-04-24T05:37:04.743Z,75.99
2023-04-24T05:39:32.190Z,78.51
2023-04-24T05:42:02.422Z,80.14
2023-04-24T05:44:29.878Z,77.33
2023-04-24T05:46:57.870Z,76.58
2023-04-24T05:49:25.781Z,77.58
2023-04-24T05:51:53.542Z,77.27
2023-04-24T05:54:21.123Z,77.95
2023-04-24T05:56:48.643Z,78.97
2023-04-24T05:59:23.083Z,78.14
2023-04-24T06:01:52.309Z,76.19
2023-04-24T06:04:22.688Z,76.09
2023-04-24T06:06:51.971Z,76.71
2023-04-24T06:09:19.704Z,77.13
2023-04-24T06:11:47.185Z,77.41
2023-04-24T06:14:15.677Z,76.34
2023-04-24T06:17:01.912Z,74.09
2023-04-24T06:19:35.990Z,74.78
2023-04-24T06:22:03.921Z,75.14
2023-04-24T06:24:31.890Z,75.48
2023-04-24T06:27:01.492Z,76.79
2023-04-24T06:29:29.577Z,73.16
2023-04-24T06:31:57.248Z,74.44
2023-04-24T06:34:24.724Z,72.95
2023-04-24T06:36:52.624Z,71.39
2023-04-24T06:39:20.224Z,68.99
2023-04-24T06:41:47.669Z,69.16
2023-04-24T06:44:20.785Z,70.10
2023-04-24T06:46:48.545Z,71.25
2023-04-24T06:49:17.091Z,71.96
2023-04-24T06:51:44.666Z,69.90
2023-04-24T06:54:12.159Z,70.83
2023-04-24T06:56:39.614Z,70.06
2023-04-24T06:59:07.180Z,71.35
2023-04-24T07:01:34.618Z,67.34
2023-04-24T07:04:02.752Z,67.78
2023-04-24T07:06:32.798Z,66.19
2023-04-24T07:09:02.482Z,66.14
2023-04-24T07:11:30.309Z,67.13
2023-04-24T07:13:57.894Z,69.25
2023-04-24T07:16:25.496Z,68.03
2023-04-24T07:18:53.205Z,65.19
2023-04-24T07:21:20.760Z,67.20
2023-04-24T07:23:48.262Z,66.43
2023-04-24T07:26:16.058Z,67.25
2023-04-24T07:28:43.646Z,64.35
2023-04-24T07:31:13.136Z,64.57
2023-04-24T07:33:40.818Z,62.16
2023-04-24T07:36:08.447Z,61.41
2023-04-24T07:38:35.901Z,62.30
2023-04-24T07:41:03.390Z,63.70
2023-04-24T07:43:30.979Z,62.38
2023-04-24T07:45:58.491Z,62.90
2023-04-24T07:48:27.468Z,60.40
2023-04-24T07:50:55.707Z,62.75
2023-04-24T07:53:23.376Z,61.91
2023-04-24T07:55:50.970Z,61.35
2023-04-24T07:58:18.581Z,59.95
2023-04-24T08:00:46.131Z,62.82
2023-04-24T08:03:13.813Z,62.43
2023-04-24T08:05:44.073Z,62.50
2023-04-24T08:08:11.713Z,62.16
2023-04-24T08:10:39.314Z,62.36
2023-04-24T08:13:06.959Z,61.33
2023-04-24T08:15:34.432Z,62.08
2023-04-24T08:18:02.000Z,60.19
2023-04-24T08:20:29.667Z,61.71
2023-04-24T08:22:57.589Z,62.62
2023-04-24T08:25:25.782Z,60.83
2023-04-24T08:27:53.452Z,57.48
2023-04-24T08:30:23.649Z,59.40
2023-04-24T08:32:51.168Z,61.45
2023-04-24T08:35:18.827Z,60.67
2023-04-24T08:37:46.252Z,59.88
2023-04-24T08:40:18.127Z,62.68
2023-04-24T08:42:46.613Z,63.35
2023-04-24T08:45:15.053Z,61.90
2023-04-24T08:47:45.168Z,62.70
2023-04-24T08:50:13.821Z,61.08
2023-04-24T08:52:42.227Z,62.54
2023-04-24T08:55:10.254Z,60.89
2023-04-24T08:57:41.093Z,60.87
2023-04-24T09:00:11.704Z,59.83
2023-04-24T09:02:44.973Z,60.88
2023-04-24T09:05:18.821Z,61.34
2023-04-24T09:07:57.417Z,59.13
2023-04-24T09:10:29.134Z,58.27
2023-04-24T09:12:59.231Z,57.26
2023-04-24T09:15:29.731Z,57.07
2023-04-24T09:17:57.562Z,56.18
2023-04-24T09:20:25.255Z,56.35
2023-04-24T09:22:56.716Z,53.68
2023-04-24T09:25:26.272Z,55.06
2023-04-24T09:27:56.128Z,56.42
2023-04-24T09:30:24.243Z,54.17
2023-04-24T09:33:00.259Z,54.18
2023-04-24T09:35:30.513Z,54.65
2023-04-24T09:37:59.536Z,52.78
2023-04-24T09:40:27.307Z,55.26
2023-04-24T09:42:57.865Z,54.84
2023-04-24T09:45:39.532Z,55.36
2023-04-24T09:48:11.351Z,53.39
2023-04-24T09:50:39.226Z,53.07
2023-04-24T09:53:11.869Z,54.47
2023-04-24T09:55:49.509Z,54.24
2023-04-24T09:58:17.068Z,52.60
2023-04-24T10:00:44.462Z,52.49
2023-04-24T10:03:12.777Z,51.97
2023-04-24T10:05:44.768Z,51.42
2023-04-24T10:08:14.400Z,51.15
2023-04-24T10:10:46.876Z,53.41
2023-04-24T10:13:16.777Z,50.81
2023-04-24T10:15:51.006Z,51.01
2023-04-24T10:18:19.933Z,49.35
2023-04-24T10:20:47.660Z,51.32
2023-04-24T10:23:15.420Z,49.60
2023-04-24T10:25:43.263Z,49.54
2023-04-24T10:28:12.192Z,48.99
2023-04-24T10:30:44.531Z,48.46
2023-04-24T10:33:13.356Z,46.93
2023-04-24T10:35:48.812Z,46.99
2023-04-24T10:38:27.997Z,43.59
2023-04-24T10:41:20.443Z,43.77
2023-04-24T10:43:49.720Z,43.17
2023-04-24T10:46:22.677Z,43.80
2023-04-24T10:48:57.947Z,43.43
2023-04-24T10:51:44.076Z,40.74
2023-04-24T10:54:44.332Z,43.81
2023-04-24T10:57:40.906Z,43.58
2023-04-24T11:00:21.256Z,42.51
2023-04-24T11:02:51.763Z,42.15
2023-04-24T11:05:21.483Z,42.15
2023-04-24T11:08:23.392Z,42.73
2023-04-24T11:11:05.310Z,42.29
2023-04-24T11:14:01.888Z,42.52
2023-04-24T11:16:39.313Z,41.30
2023-04-24T11:19:17.791Z,41.99
2023-04-24T11:22:02.843Z,40.92
2023-04-24T11:24:48.042Z,40.91
2023-04-24T11:27:23.497Z,40.39
2023-04-24T11:29:57.328Z,41.07
2023-04-24T11:32:26.216Z,40.36
2023-04-24T11:35:08.094Z,41.88
2023-04-24T11:37:44.655Z,40.67
2023-04-24T11:40:16.546Z,42.34
2023-04-24T11:42:51.554Z,42.04
2023-04-24T11:45:29.087Z,42.85
2023-04-24T11:47:56.958Z,41.04
2023-04-24T11:50:28.802Z,41.24
2023-04-24T11:52:56.935Z,42.63
2023-04-24T11:55:29.521Z,42.94
2023-04-24T11:58:00.278Z,39.07
2023-04-24T12:00:30.425Z,42.13
2023-04-24T12:03:12.609Z,40.51
2023-04-24T12:05:42.092Z,41.38
2023-04-24T12:08:09.825Z,41.18
2023-04-24T12:10:37.837Z,40.44
2023-04-24T12:13:06.506Z,40.23
2023-04-24T12:15:34.125Z,38.63
2023-04-24T12:18:01.708Z,40.57
2023-04-24T12:20:32.332Z,41.39
2023-04-24T12:23:02.078Z,41.28
2023-04-24T12:25:32.168Z,39.93
2023-04-24T12:28:18.712Z,40.88
2023-04-24T12:30:50.287Z,41.28
2023-04-24T12:33:22.449Z,41.67
2023-04-24T12:35:56.595Z,41.04
2023-04-24T12:38:27.750Z,41.49
2023-04-24T12:41:14.499Z,39.69
2023-04-24T12:43:54.113Z,42.83
2023-04-24T12:46:22.730Z,41.54
2023-04-24T12:48:50.779Z,41.01
2023-04-24T12:51:18.403Z,40.32
2023-04-24T12:53:45.944Z,40.99
2023-04-24T12:56:13.425Z,39.35
2023-04-24T12:58:40.906Z,40.72
2023-04-24T13:01:08.544Z,40.00
2023-04-24T13:03:36.596Z,40.01
2023-04-24T13:06:04.410Z,39.28
2023-04-24T13:08:31.829Z,39.66
2023-04-24T13:10:59.338Z,39.15
2023-04-24T13:13:26.928Z,39.31
2023-04-24T13:15:54.361Z,39.35
2023-04-24T13:18:22.337Z,40.33
2023-04-24T13:20:50.064Z,40.31
2023-04-24T13:23:18.235Z,40.11
2023-04-24T13:25:45.749Z,39.69
2023-04-24T13:28:13.295Z,38.88
2023-04-24T13:30:40.929Z,39.35
2023-04-24T13:33:08.571Z,40.71
2023-04-24T13:35:36.198Z,39.11
2023-04-24T13:38:07.034Z,39.06
2023-04-24T13:40:34.964Z,38.68
2023-04-24T13:43:03.052Z,38.10
2023-04-24T13:45:30.672Z,38.71
2023-04-24T13:47:58.481Z,38.73
2023-04-24T13:50:26.569Z,37.87
2023-04-24T13:52:54.399Z,38.15
2023-04-24T13:55:21.970Z,39.15
2023-04-24T13:57:49.988Z,39.94
2023-04-24T14:00:18.907Z,41.02
2023-04-24T14:02:46.585Z,41.28
2023-04-24T14:05:16.310Z,42.38
2023-04-24T14:07:43.767Z,41.70
2023-04-24T14:10:11.682Z,40.65
2023-04-24T14:12:41.748Z,42.77
2023-04-24T14:15:10.392Z,43.92
2023-04-24T14:17:37.975Z,43.12
2023-04-24T14:20:07.967Z,43.77
2023-04-24T14:22:35.718Z,44.83
2023-04-24T14:25:03.284Z,45.20
2023-04-24T14:27:31.518Z,45.78
2023-04-24T14:29:59.172Z,46.10
2023-04-24T14:32:27.144Z,45.92
2023-04-24T14:34:54.669Z,47.08
2023-04-24T14:37:22.415Z,47.64
2023-04-24T14:40:00.625Z,47.15
2023-04-24T14:42:37.481Z,46.47
2023-04-24T14:45:05.650Z,46.88
2023-04-24T14:47:33.252Z,48.75
2023-04-24T14:50:00.959Z,47.03
2023-04-24T14:52:28.564Z,47.64
2023-04-24T14:54:57.158Z,47.01
2023-04-24T14:57:24.975Z,45.73
2023-04-24T14:59:52.571Z,45.51
2023-04-24T15:02:22.264Z,45.57
2023-04-24T15:04:50.641Z,44.91
2023-04-24T15:07:18.436Z,45.58
2023-04-24T15:09:48.138Z,44.71
2023-04-24T15:12:15.870Z,44.67
2023-04-24T15:14:43.443Z,44.52
2023-04-24T15:17:13.816Z,44.33
2023-04-24T15:19:41.383Z,44.83
2023-04-24T15:22:09.755Z,45.16
2023-04-24T15:24:37.299Z,45.15
2023-04-24T15:27:06.780Z,45.48
2023-04-24T15:29:35.867Z,45.76
2023-04-24T15:32:03.435Z,46.86
2023-04-24T15:34:33.218Z,46.17
2023-04-24T15:37:01.603Z,47.38
2023-04-24T15:39:29.145Z,46.81
2023-04-24T15:41:56.746Z,46.86
2023-04-24T15:44:24.667Z,47.64
2023-04-24T15:46:52.730Z,48.80
2023-04-24T15:49:20.512Z,47.92
2023-04-24T15:51:48.103Z,47.73
2023-04-24T15:54:15.718Z,47.50
2023-04-24T15:56:44.730Z,48.97
2023-04-24T15:59:13.527Z,48.80
2023-04-24T16:01:41.576Z,48.99
2023-04-24T16:04:09.728Z,49.19
2023-04-24T16:06:37.518Z,49.00
2023-04-24T16:09:06.420Z,48.16
2023-04-24T16:11:36.771Z,48.92
2023-04-24T16:14:05.413Z,49.83
2023-04-24T16:16:33.311Z,49.46
2023-04-24T16:19:02.160Z,50.02
2023-04-24T16:21:29.896Z,52.05
2023-04-24T16:23:59.501Z,51.68
2023-04-24T16:26:28.044Z,51.59
2023-04-24T16:28:55.946Z,51.70
2023-04-24T16:31:23.561Z,51.84
2023-04-24T16:33:52.226Z,52.02
2023-04-24T16:36:22.374Z,52.27
2023-04-24T16:38:51.193Z,52.39
2023-04-24T16:41:18.731Z,52.96
2023-04-24T16:43:47.612Z,53.64
2023-04-24T16:46:18.167Z,53.92
2023-04-24T16:48:47.626Z,54.83
2023-04-24T16:51:15.904Z,55.92
2023-04-24T16:53:48.993Z,56.13
2023-04-24T16:56:19.122Z,56.94
2023-04-24T16:58:46.999Z,57.10
2023-04-24T17:01:16.260Z,58.42
2023-04-24T17:03:44.091Z,58.62
2023-04-24T17:06:11.846Z,59.73
2023-04-24T17:08:41.003Z,61.14
2023-04-24T17:11:08.800Z,61.86
2023-04-24T17:13:36.622Z,62.92
2023-04-24T17:16:04.773Z,63.86
2023-04-24T17:18:34.815Z,65.38
2023-04-24T17:21:02.422Z,66.20
2023-04-24T17:23:29.946Z,67.32
2023-04-24T17:26:01.613Z,68.24
2023-04-24T17:28:31.868Z,69.00
2023-04-24T17:31:01.946Z,68.88
2023-04-24T17:33:32.156Z,69.10
2023-04-24T17:36:10.478Z,67.99
2023-04-24T17:38:38.773Z,68.09
2023-04-24T17:41:07.929Z,68.94
2023-04-24T17:43:40.510Z,69.16
2023-04-24T17:46:13.488Z,70.09
2023-04-24T17:48:43.291Z,70.60
2023-04-24T17:51:13.808Z,71.68
2023-04-24T17:53:42.801Z,72.33
2023-04-24T17:56:10.473Z,72.00
2023-04-24T17:58:39.771Z,72.48
2023-04-24T18:01:09.890Z,72.98
2023-04-24T18:03:38.600Z,73.62
2023-04-24T18:06:10.266Z,73.56
2023-04-24T18:08:38.578Z,73.31
2023-04-24T18:11:13.026Z,71.94
2023-04-24T18:13:46.769Z,72.12
2023-04-24T18:16:20.127Z,73.15
2023-04-24T18:18:49.522Z,72.71
2023-04-24T18:21:17.289Z,72.44
2023-04-24T18:24:07.798Z,72.23
2023-04-24T18:26:47.321Z,72.53
2023-04-24T18:29:20.133Z,72.52
2023-04-24T18:31:52.673Z,73.19
2023-04-24T18:34:20.627Z,73.38
2023-04-24T18:36:51.285Z,74.26
2023-04-24T18:39:19.744Z,74.15
2023-04-24T18:42:11.496Z,74.05
2023-04-24T18:44:44.558Z,74.27
2023-04-24T18:47:20.062Z,74.96
2023-04-24T18:49:55.645Z,75.84
2023-04-24T18:52:29.441Z,76.05
2023-04-24T18:54:59.760Z,76.23
2023-04-24T18:57:28.400Z,76.77
2023-04-24T18:59:57.496Z,76.52
2023-04-24T19:02:26.462Z,76.64
2023-04-24T19:04:54.154Z,76.43
2023-04-24T19:07:22.936Z,76.38
2023-04-24T19:09:50.856Z,75.95
2023-04-24T19:12:38.741Z,77.32
2023-04-24T19:15:11.989Z,77.11
2023-04-24T19:17:40.791Z,77.75
2023-04-24T19:20:09.238Z,77.88
2023-04-24T19:22:36.950Z,78.52
2023-04-24T19:25:06.953Z,78.80
2023-04-24T19:27:36.397Z,79.18
2023-04-24T19:30:04.661Z,79.16
2023-04-24T19:32:35.419Z,79.56
2023-04-24T19:35:03.166Z,79.89
2023-04-24T19:37:32.524Z,81.01
2023-04-24T19:40:00.490Z,81.26
2023-04-24T19:42:42.471Z,80.85
2023-04-24T19:45:15.370Z,81.75
2023-04-24T19:47:47.289Z,81.59
2023-04-24T19:50:24.028Z,82.75
2023-04-24T19:52:52.172Z,83.50
2023-04-24T19:55:25.200Z,83.25
2023-04-24T19:57:56.341Z,83.19
2023-04-24T20:00:24.093Z,83.31
2023-04-24T20:02:52.695Z,83.93
2023-04-24T20:05:24.105Z,84.00
2023-04-24T20:07:52.357Z,83.70
2023-04-24T20:10:30.618Z,83.60
2023-04-24T20:12:59.713Z,84.38
2023-04-24T20:15:27.252Z,84.21
2023-04-24T20:17:56.573Z,84.24
2023-04-24T20:20:24.117Z,84.75
2023-04-24T20:22:51.713Z,84.84
2023-04-24T20:25:19.462Z,84.87
2023-04-24T20:27:46.945Z,84.73
2023-04-24T20:30:16.033Z,84.64
2023-04-24T20:32:44.713Z,85.23
2023-04-24T20:35:12.701Z,84.78
2023-04-24T20:37:41.386Z,85.20
2023-04-24T20:40:10.507Z,85.57
2023-04-24T20:42:38.367Z,85.56
2023-04-24T20:45:06.972Z,85.18
2023-04-24T20:47:37.478Z,85.60
2023-04-24T20:50:06.382Z,85.48
2023-04-24T20:52:34.368Z,85.19
2023-04-24T20:55:02.019Z,85.46
2023-04-24T20:57:31.026Z,85.62
2023-04-24T21:00:00.433Z,85.79
2023-04-24T21:02:30.455Z,85.93
2023-04-24T21:04:58.109Z,85.84
2023-04-24T21:07:25.641Z,85.81
2023-04-24T21:09:53.196Z,86.12
2023-04-24T21:12:20.683Z,85.51
2023-04-24T21:14:49.806Z,85.00
2023-04-24T21:17:20.106Z,84.08
2023-04-24T21:19:49.079Z,85.48
2023-04-24T21:22:16.683Z,84.48
2023-04-24T21:24:44.341Z,85.23
2023-04-24T21:27:11.981Z,86.09
2023-04-24T21:29:39.525Z,86.31
2023-04-24T21:32:07.083Z,87.29
2023-04-24T21:34:34.654Z,87.19
2023-04-24T21:37:02.628Z,86.65
2023-04-24T21:39:30.624Z,83.39
2023-04-24T21:41:58.608Z,82.73
2023-04-24T21:44:26.636Z,81.69
2023-04-24T21:46:54.848Z,80.25
2023-04-24T21:49:22.646Z,79.68
2023-04-24T21:51:50.126Z,80.24
2023-04-24T21:54:20.242Z,80.70
2023-04-24T21:56:47.755Z,82.57
2023-04-24T21:59:15.671Z,81.64
2023-04-24T22:01:44.484Z,82.58
2023-04-24T22:04:12.229Z,82.31
2023-04-24T22:06:39.732Z,81.69
2023-04-24T22:09:07.688Z,81.93
2023-04-24T22:11:36.629Z,81.56
2023-04-24T22:14:04.524Z,81.41
2023-04-24T22:16:34.386Z,83.52
2023-04-24T22:19:02.220Z,83.13
2023-04-24T22:21:32.754Z,83.67
2023-04-24T22:24:00.317Z,83.82
2023-04-24T22:26:27.771Z,83.84
2023-04-24T22:28:55.416Z,83.93
2023-04-24T22:31:23.755Z,84.26
2023-04-24T22:33:51.749Z,85.48
2023-04-24T22:36:19.461Z,84.59
2023-04-24T22:38:46.950Z,85.43
2023-04-24T22:41:14.801Z,86.08
2023-04-24T22:43:42.395Z,85.70
2023-04-24T22:46:09.861Z,88.48
2023-04-24T22:48:37.356Z,88.32
2023-04-24T22:51:05.096Z,88.75
2023-04-24T22:53:32.524Z,90.39
2023-04-24T22:56:00.830Z,90.29
2023-04-24T22:58:28.312Z,91.84
2023-04-24T23:00:55.996Z,93.87
2023-04-24T23:03:24.097Z,96.61
2023-04-24T23:05:51.790Z,98.88
2023-04-24T23:08:19.268Z,100.00
2023-04-24T23:10:46.973Z,100.00
2023-04-24T23:13:14.475Z,100.00
2023-04-24T23:15:42.139Z,100.00
2023-04-24T23:18:09.662Z,100.00
2023-04-24T23:20:38.580Z,100.00
2023-04-24T23:23:06.193Z,100.00
2023-04-24T23:25:33.685Z,100.00
2023-04-24T23:28:01.112Z,100.00
2023-04-24T23:30:29.868Z,100.00
2023-04-24T23:32:57.382Z,100.00
2023-04-24T23:35:25.868Z,100.00
2023-04-24T23:37:53.312Z,100.00
2023-04-24T23:40:20.990Z,100.00
2023-04-24T23:42:59.705Z,100.00
2023-04-24T23:45:37.032Z,100.00
2023-04-24T23:48:05.540Z,100.00
2023-04-24T23:50:33.036Z,100.00
2023-04-24T23:53:00.978Z,100.00
2023-04-24T23:55:28.414Z,100.00
2023-04-24T23:57:55.812Z,100.00
